createdAt,value
2024-03-05T00:00:39.916Z,95.70
2024-03-05T00:03:09.393Z,95.70
2024-03-05T00:05:38.711Z,95.80
2024-03-05T00:08:06.441Z,95.70
2024-03-05T00:10:36.431Z,95.70
2024-03-05T00:13:04.662Z,95.80
2024-03-05T00:15:35.157Z,95.70
2024-03-05T00:18:06.565Z,95.70
2024-03-05T00:20:36.688Z,95.70
2024-03-05T00:23:06.398Z,95.70
2024-03-05T00:25:33.487Z,95.80
2024-03-05T00:28:00.851Z,95.80
2024-03-05T00:30:28.901Z,95.70
2024-03-05T00:32:56.376Z,95.70
2024-03-05T00:35:26.498Z,95.70
2024-03-05T00:37:56.956Z,95.70
2024-03-05T00:40:27.437Z,95.70
2024-03-05T00:42:54.427Z,95.70
2024-03-05T00:45:24.262Z,95.70
2024-03-05T00:47:51.794Z,95.70
2024-03-05T00:50:25.442Z,95.70
2024-03-05T00:52:55.352Z,95.70
2024-03-05T00:55:23.460Z,95.70
2024-03-05T00:57:53.708Z,95.70
2024-03-05T01:00:23.668Z,95.80
2024-03-05T01:02:53.337Z,95.70
2024-03-05T01:05:20.667Z,95.70
2024-03-05T01:07:50.784Z,95.70
2024-03-05T01:10:21.192Z,95.70
2024-03-05T01:12:51.217Z,95.80
2024-03-05T01:15:21.942Z,95.70
2024-03-05T01:17:52.476Z,95.70
2024-03-05T01:20:21.508Z,95.80
2024-03-05T01:22:49.149Z,95.80
2024-03-05T01:25:18.538Z,95.70
2024-03-05T01:27:46.821Z,95.70
2024-03-05T01:30:17.246Z,95.80
2024-03-05T01:32:48.113Z,95.80
2024-03-05T01:35:17.936Z,95.90
2024-03-05T01:37:46.328Z,95.90
2024-03-05T01:40:16.188Z,95.90
2024-03-05T01:42:43.706Z,95.90
2024-03-05T01:45:14.016Z,95.80
2024-03-05T01:47:46.104Z,95.70
2024-03-05T01:50:16.043Z,95.80
2024-03-05T01:52:47.220Z,95.70
2024-03-05T01:55:21.292Z,95.70
2024-03-05T01:57:53.796Z,95.80
2024-03-05T02:00:22.231Z,95.80
2024-03-05T02:02:51.457Z,95.80
2024-03-05T02:05:19.183Z,95.80
2024-03-05T02:07:48.836Z,95.80
2024-03-05T02:10:16.495Z,95.80
2024-03-05T02:12:45.075Z,95.70
2024-03-05T02:15:12.715Z,95.70
2024-03-05T02:17:43.993Z,95.80
2024-03-05T02:20:13.477Z,95.80
2024-03-05T02:22:41.171Z,95.80
2024-03-05T02:25:08.906Z,95.70
2024-03-05T02:27:38.577Z,95.70
2024-03-05T02:30:11.838Z,95.80
2024-03-05T02:32:43.539Z,95.80
2024-03-05T02:35:13.558Z,95.80
2024-03-05T02:37:41.219Z,95.70
2024-03-05T02:40:15.359Z,95.80
2024-03-05T02:42:46.066Z,95.80
2024-03-05T02:45:14.280Z,95.80
2024-03-05T02:47:44.317Z,95.80
2024-03-05T02:50:12.354Z,95.80
2024-03-05T02:52:42.453Z,95.90
2024-03-05T02:55:13.082Z,95.80
2024-03-05T02:57:45.716Z,95.80
2024-03-05T03:00:20.884Z,95.80
2024-03-05T03:02:51.976Z,95.80
2024-03-05T03:05:23.316Z,95.80
2024-03-05T03:07:54.052Z,95.80
2024-03-05T03:10:21.825Z,95.80
2024-03-05T03:12:52.529Z,95.80
2024-03-05T03:15:22.909Z,95.80
2024-03-05T03:17:52.458Z,95.80
2024-03-05T03:20:25.685Z,95.70
2024-03-05T03:22:55.459Z,95.80
2024-03-05T03:25:26.129Z,95.80
2024-03-05T03:27:53.372Z,95.80
2024-03-05T03:30:23.290Z,95.80
2024-03-05T03:32:56.129Z,95.90
2024-03-05T03:35:25.490Z,95.80
2024-03-05T03:37:55.783Z,95.80
2024-03-05T03:40:23.450Z,95.80
2024-03-05T03:42:52.688Z,95.70
2024-03-05T03:45:20.492Z,95.80
2024-03-05T03:47:47.793Z,95.90
2024-03-05T03:50:15.426Z,95.90
2024-03-05T03:52:44.537Z,95.90
2024-03-05T03:55:12.489Z,95.80
2024-03-05T03:57:42.832Z,95.80
2024-03-05T04:00:13.036Z,95.80
2024-03-05T04:02:40.597Z,95.80
2024-03-05T04:05:11.130Z,95.90
2024-03-05T04:07:41.834Z,95.80
2024-03-05T04:10:12.482Z,95.80
2024-03-05T04:12:40.467Z,95.80
2024-03-05T04:15:10.814Z,95.80
2024-03-05T04:17:41.276Z,95.80
2024-03-05T04:20:10.695Z,95.90
2024-03-05T04:22:41.564Z,95.90
2024-03-05T04:25:09.510Z,95.80
2024-03-05T04:27:43.315Z,95.80
2024-03-05T04:30:23.789Z,95.70
2024-03-05T04:33:05.336Z,95.90
2024-03-05T04:35:33.276Z,95.80
2024-03-05T04:38:03.658Z,95.90
2024-03-05T04:40:31.456Z,95.90
2024-03-05T04:43:01.760Z,95.80
2024-03-05T04:45:32.034Z,95.80
2024-03-05T04:48:02.308Z,95.80
2024-03-05T04:50:32.142Z,95.80
2024-03-05T04:53:04.598Z,95.80
2024-03-05T04:55:31.626Z,95.80
2024-03-05T04:57:58.826Z,95.80
2024-03-05T05:00:28.701Z,95.80
2024-03-05T05:02:58.765Z,95.80
2024-03-05T05:05:33.064Z,95.80
2024-03-05T05:08:04.562Z,95.70
2024-03-05T05:10:35.424Z,95.80
2024-03-05T05:13:05.204Z,95.80
2024-03-05T05:15:32.310Z,95.80
2024-03-05T05:18:06.190Z,95.70
2024-03-05T05:20:33.366Z,95.70
2024-03-05T05:23:00.757Z,95.70
2024-03-05T05:25:32.383Z,95.80
2024-03-05T05:28:05.100Z,95.80
2024-03-05T05:30:35.090Z,95.80
2024-03-05T05:33:03.321Z,95.80
2024-03-05T05:35:30.697Z,95.80
2024-03-05T05:37:59.005Z,95.80
2024-03-05T05:40:28.735Z,95.80
2024-03-05T05:42:58.072Z,95.70
2024-03-05T05:45:27.998Z,95.70
2024-03-05T05:47:58.135Z,95.80
2024-03-05T05:50:32.739Z,95.80
2024-03-05T05:53:02.857Z,95.80
2024-03-05T05:55:34.674Z,95.80
2024-03-05T05:58:05.552Z,95.80
2024-03-05T06:00:34.665Z,95.70
2024-03-05T06:03:05.878Z,95.80
2024-03-05T06:05:38.094Z,95.70
2024-03-05T06:08:11.928Z,95.80
2024-03-05T06:10:43.693Z,95.80
2024-03-05T06:13:14.465Z,95.80
2024-03-05T06:15:41.464Z,95.80
2024-03-05T06:18:12.316Z,95.70
2024-03-05T06:20:44.553Z,95.70
2024-03-05T06:23:18.319Z,95.70
2024-03-05T06:25:49.067Z,95.80
2024-03-05T06:28:20.928Z,95.70
2024-03-05T06:30:56.211Z,95.70
2024-03-05T06:33:23.840Z,95.70
2024-03-05T06:35:51.903Z,95.70
2024-03-05T06:38:23.378Z,95.70
2024-03-05T06:40:50.792Z,95.70
2024-03-05T06:43:33.126Z,95.70
2024-03-05T06:46:11.417Z,95.60
2024-03-05T06:48:49.464Z,95.60
2024-03-05T06:51:33.154Z,95.60
2024-03-05T06:54:22.523Z,95.70
2024-03-05T06:56:50.111Z,95.60
2024-03-05T06:59:20.565Z,95.70
2024-03-05T07:01:51.218Z,95.70
2024-03-05T07:04:21.077Z,95.50
2024-03-05T07:06:51.245Z,95.60
2024-03-05T07:09:31.663Z,95.70
2024-03-05T07:12:02.581Z,95.50
2024-03-05T07:14:29.716Z,95.60
2024-03-05T07:16:57.047Z,95.60
2024-03-05T07:19:27.283Z,95.50
2024-03-05T07:21:55.321Z,95.60
2024-03-05T07:24:31.257Z,95.50
2024-03-05T07:27:04.702Z,95.60
2024-03-05T07:29:42.441Z,95.50
2024-03-05T07:32:18.411Z,95.60
2024-03-05T07:34:45.638Z,95.60
2024-03-05T07:37:15.762Z,95.50
2024-03-05T07:39:48.869Z,95.50
2024-03-05T07:42:16.215Z,95.70
2024-03-05T07:44:43.529Z,95.60
2024-03-05T07:47:13.965Z,95.70
2024-03-05T07:49:55.001Z,95.80
2024-03-05T07:52:25.541Z,95.90
2024-03-05T07:54:56.461Z,95.80
2024-03-05T07:57:26.082Z,95.90
2024-03-05T07:59:56.422Z,95.90
2024-03-05T08:02:23.589Z,96.00
2024-03-05T08:04:51.291Z,96.00
2024-03-05T08:07:21.996Z,96.00
2024-03-05T08:09:51.777Z,96.20
2024-03-05T08:12:22.882Z,96.20
2024-03-05T08:14:50.350Z,96.20
2024-03-05T08:17:17.981Z,96.20
2024-03-05T08:19:45.323Z,96.20
2024-03-05T08:22:15.482Z,96.40
2024-03-05T08:24:45.729Z,96.40
2024-03-05T08:27:17.289Z,96.30
2024-03-05T08:29:51.177Z,96.50
2024-03-05T08:32:24.256Z,96.60
2024-03-05T08:34:57.066Z,96.70
2024-03-05T08:37:24.627Z,97.10
2024-03-05T08:39:52.192Z,97.00
2024-03-05T08:42:22.507Z,98.10
2024-03-05T08:44:52.821Z,97.50
2024-03-05T08:47:20.063Z,97.50
2024-03-05T08:49:52.255Z,98.80
2024-03-05T08:52:22.046Z,97.90
2024-03-05T08:54:52.145Z,98.40
2024-03-05T08:57:24.377Z,97.50
2024-03-05T08:59:52.722Z,97.20
2024-03-05T09:02:20.483Z,97.40
2024-03-05T09:04:53.849Z,98.20
2024-03-05T09:07:25.367Z,97.70
2024-03-05T09:09:53.284Z,97.70
2024-03-05T09:12:24.049Z,97.60
2024-03-05T09:14:54.147Z,97.40
2024-03-05T09:17:24.628Z,97.40
2024-03-05T09:19:54.864Z,97.50
2024-03-05T09:22:24.968Z,97.80
2024-03-05T09:24:57.648Z,97.90
2024-03-05T09:27:27.659Z,98.00
2024-03-05T09:29:57.662Z,97.90
2024-03-05T09:32:25.935Z,97.60
2024-03-05T09:34:55.979Z,97.50
2024-03-05T09:37:29.258Z,97.60
2024-03-05T09:39:59.167Z,97.60
2024-03-05T09:42:40.047Z,97.50
2024-03-05T09:45:30.310Z,97.20
2024-03-05T09:48:00.555Z,97.30
2024-03-05T09:50:27.915Z,97.40
2024-03-05T09:53:01.701Z,97.40
2024-03-05T09:55:29.415Z,97.50
2024-03-05T09:57:59.884Z,97.40
2024-03-05T10:00:32.190Z,97.40
2024-03-05T10:03:03.180Z,97.40
2024-03-05T10:05:33.429Z,97.60
2024-03-05T10:08:04.123Z,97.60
2024-03-05T10:10:34.441Z,97.90
2024-03-05T10:13:05.538Z,97.70
2024-03-05T10:15:38.880Z,97.80
2024-03-05T10:18:14.189Z,97.80
2024-03-05T10:20:44.775Z,98.20
2024-03-05T10:23:17.611Z,98.10
2024-03-05T10:25:45.977Z,97.90
2024-03-05T10:28:23.462Z,97.80
2024-03-05T10:31:02.883Z,97.80
2024-03-05T10:33:31.148Z,98.00
2024-03-05T10:35:59.050Z,97.90
2024-03-05T10:38:35.318Z,97.90
2024-03-05T10:41:03.305Z,98.40
2024-03-05T10:43:37.084Z,98.30
2024-03-05T10:46:10.685Z,98.10
2024-03-05T10:48:44.061Z,97.90
2024-03-05T10:51:14.637Z,97.70
2024-03-05T10:53:42.340Z,98.20
2024-03-05T10:56:16.092Z,97.90
2024-03-05T10:59:10.309Z,98.10
2024-03-05T11:01:38.827Z,98.30
2024-03-05T11:04:25.547Z,98.50
2024-03-05T11:07:07.648Z,98.20
2024-03-05T11:09:40.091Z,98.30
2024-03-05T11:12:14.160Z,98.20
2024-03-05T11:14:48.100Z,98.30
2024-03-05T11:17:18.008Z,98.30
2024-03-05T11:19:48.245Z,98.00
2024-03-05T11:22:29.223Z,98.20
2024-03-05T11:25:07.433Z,98.30
2024-03-05T11:27:37.292Z,98.20
2024-03-05T11:30:18.219Z,98.20
2024-03-05T11:32:53.415Z,98.00
2024-03-05T11:35:27.108Z,98.20
2024-03-05T11:37:57.078Z,97.80
2024-03-05T11:40:35.966Z,98.00
2024-03-05T11:43:06.031Z,98.00
2024-03-05T11:45:54.895Z,98.30
2024-03-05T11:48:22.264Z,98.50
2024-03-05T11:50:58.689Z,98.20
2024-03-05T11:53:28.102Z,98.00
2024-03-05T11:56:05.033Z,97.90
2024-03-05T11:58:39.507Z,98.20
2024-03-05T12:01:08.405Z,98.10
2024-03-05T12:03:41.290Z,98.20
2024-03-05T12:06:11.928Z,98.10
2024-03-05T12:08:40.155Z,97.90
2024-03-05T12:11:10.949Z,97.80
2024-03-05T12:13:38.585Z,97.60
2024-03-05T12:16:12.044Z,97.80
2024-03-05T12:18:42.378Z,98.40
2024-03-05T12:21:15.528Z,98.60
2024-03-05T12:23:48.864Z,97.90
2024-03-05T12:26:20.690Z,98.00
2024-03-05T12:28:51.141Z,98.50
2024-03-05T12:31:22.482Z,98.00
2024-03-05T12:33:49.983Z,97.80
2024-03-05T12:36:19.809Z,97.70
2024-03-05T12:38:50.271Z,97.80
2024-03-05T12:41:21.565Z,98.00
2024-03-05T12:43:58.242Z,98.00
2024-03-05T12:46:25.473Z,98.00
2024-03-05T12:49:03.139Z,97.80
2024-03-05T12:51:33.194Z,97.90
2024-03-05T12:54:12.290Z,97.80
2024-03-05T12:56:45.569Z,98.00
2024-03-05T12:59:23.184Z,98.00
2024-03-05T13:01:51.874Z,98.20
2024-03-05T13:04:22.193Z,98.10
2024-03-05T13:06:52.884Z,97.80
2024-03-05T13:09:23.616Z,97.90
2024-03-05T13:11:54.155Z,97.80
2024-03-05T13:14:25.223Z,97.90
2024-03-05T13:16:54.022Z,98.00
2024-03-05T13:19:24.259Z,97.90
2024-03-05T13:21:54.980Z,97.90
2024-03-05T13:24:23.026Z,97.80
2024-03-05T13:26:53.254Z,97.80
2024-03-05T13:29:25.358Z,98.00
2024-03-05T13:31:53.431Z,97.90
2024-03-05T13:34:25.977Z,97.80
2024-03-05T13:36:56.487Z,97.90
2024-03-05T13:39:26.462Z,98.10
2024-03-05T13:41:56.258Z,97.90
2024-03-05T13:44:26.424Z,97.90
2024-03-05T13:46:56.558Z,98.00
2024-03-05T13:49:25.686Z,97.80
2024-03-05T13:51:53.259Z,97.90
2024-03-05T13:54:25.637Z,98.00
2024-03-05T13:56:55.481Z,97.90
2024-03-05T13:59:23.207Z,98.00
2024-03-05T14:01:54.995Z,97.90
2024-03-05T14:04:22.318Z,97.90
2024-03-05T14:06:58.144Z,97.90
2024-03-05T14:09:25.488Z,97.70
2024-03-05T14:11:58.429Z,97.70
2024-03-05T14:14:26.252Z,97.70
2024-03-05T14:16:58.337Z,97.70
2024-03-05T14:19:29.107Z,97.80
2024-03-05T14:22:01.653Z,97.70
2024-03-05T14:24:31.628Z,97.80
2024-03-05T14:27:02.088Z,97.70
2024-03-05T14:29:32.434Z,97.70
2024-03-05T14:32:02.204Z,97.60
2024-03-05T14:34:32.815Z,97.70
2024-03-05T14:37:03.158Z,97.70
2024-03-05T14:39:33.793Z,97.70
2024-03-05T14:42:03.442Z,97.70
2024-03-05T14:44:33.252Z,97.70
2024-03-05T14:47:03.770Z,97.50
2024-03-05T14:49:31.076Z,97.70
2024-03-05T14:51:58.559Z,97.60
2024-03-05T14:54:29.398Z,97.60
2024-03-05T14:57:00.109Z,97.60
2024-03-05T14:59:30.357Z,97.80
2024-03-05T15:02:01.111Z,97.70
2024-03-05T15:04:31.222Z,97.80
2024-03-05T15:07:01.050Z,97.70
2024-03-05T15:09:28.477Z,97.70
2024-03-05T15:12:00.367Z,97.60
2024-03-05T15:14:27.745Z,97.70
2024-03-05T15:16:59.995Z,97.60
2024-03-05T15:19:27.319Z,97.70
2024-03-05T15:21:59.079Z,97.70
2024-03-05T15:24:29.653Z,97.60
2024-03-05T15:27:05.279Z,97.80
2024-03-05T15:29:33.899Z,97.80
2024-03-05T15:32:02.921Z,97.60
2024-03-05T15:34:33.208Z,97.80
2024-03-05T15:37:04.477Z,97.60
2024-03-05T15:39:35.675Z,97.70
2024-03-05T15:42:08.219Z,97.70
2024-03-05T15:44:38.217Z,97.60
2024-03-05T15:47:10.099Z,97.50
2024-03-05T15:49:37.401Z,97.50
2024-03-05T15:52:12.594Z,97.50
2024-03-05T15:54:41.226Z,97.60
2024-03-05T15:57:21.339Z,97.60
2024-03-05T16:00:14.402Z,97.60
2024-03-05T16:02:42.629Z,97.60
2024-03-05T16:05:21.333Z,97.60
2024-03-05T16:07:59.603Z,97.60
2024-03-05T16:10:30.838Z,97.60
2024-03-05T16:13:07.209Z,97.60
2024-03-05T16:15:37.371Z,97.50
2024-03-05T16:18:07.799Z,97.60
2024-03-05T16:20:37.719Z,97.60
2024-03-05T16:23:13.946Z,97.60
2024-03-05T16:25:44.404Z,97.60
2024-03-05T16:28:15.798Z,97.50
2024-03-05T16:30:45.949Z,97.50
2024-03-05T16:33:16.986Z,97.50
2024-03-05T16:35:50.487Z,97.50
2024-03-05T16:38:23.020Z,97.50
2024-03-05T16:40:54.581Z,97.50
2024-03-05T16:43:24.028Z,97.60
2024-03-05T16:45:54.044Z,97.60
2024-03-05T16:48:24.568Z,97.50
2024-03-05T16:50:54.684Z,97.50
2024-03-05T16:53:24.695Z,97.50
2024-03-05T16:55:54.396Z,97.50
2024-03-05T16:58:21.807Z,97.50
2024-03-05T17:00:58.444Z,97.60
2024-03-05T17:03:31.426Z,97.50
2024-03-05T17:06:03.838Z,97.60
2024-03-05T17:08:34.021Z,97.50
2024-03-05T17:11:10.849Z,97.50
2024-03-05T17:13:44.603Z,97.50
2024-03-05T17:16:18.823Z,97.50
2024-03-05T17:18:50.645Z,97.50
2024-03-05T17:21:21.404Z,97.50
2024-03-05T17:23:52.969Z,97.50
2024-03-05T17:26:23.051Z,97.50
2024-03-05T17:28:50.307Z,97.50
2024-03-05T17:31:21.310Z,97.50
2024-03-05T17:33:48.940Z,97.50
2024-03-05T17:36:16.329Z,97.50
2024-03-05T17:38:43.604Z,97.50
2024-03-05T17:41:10.952Z,97.50
2024-03-05T17:43:39.229Z,97.60
2024-03-05T17:46:06.562Z,97.50
2024-03-05T17:48:34.778Z,97.50
2024-03-05T17:51:02.395Z,97.50
2024-03-05T17:53:29.929Z,97.50
2024-03-05T17:55:57.321Z,97.50
2024-03-05T17:58:25.089Z,97.60
2024-03-05T18:00:52.801Z,97.60
2024-03-05T18:03:23.894Z,97.60
2024-03-05T18:05:51.923Z,97.50
2024-03-05T18:08:21.721Z,97.60
2024-03-05T18:10:49.410Z,97.60
2024-03-05T18:13:19.410Z,97.50
2024-03-05T18:15:47.283Z,97.50
2024-03-05T18:18:15.748Z,97.60
2024-03-05T18:20:44.645Z,97.50
2024-03-05T18:23:12.602Z,97.60
2024-03-05T18:25:40.524Z,97.50
2024-03-05T18:28:11.029Z,97.60
2024-03-05T18:30:41.370Z,97.50
2024-03-05T18:33:09.703Z,97.50
2024-03-05T18:35:38.569Z,97.50
2024-03-05T18:40:36.078Z,97.50
2024-03-05T18:43:03.242Z,97.50
2024-03-05T18:45:33.196Z,97.50
2024-03-05T18:48:06.246Z,97.50
2024-03-05T18:50:37.578Z,97.60
2024-03-05T18:53:07.330Z,97.50
2024-03-05T18:55:37.616Z,97.50
2024-03-05T18:58:08.201Z,97.60
2024-03-05T19:00:38.536Z,97.50
2024-03-05T19:03:06.563Z,97.50
2024-03-05T19:05:35.181Z,97.50
2024-03-05T19:08:03.149Z,97.50
2024-03-05T19:10:31.823Z,97.50
2024-03-05T19:13:00.176Z,97.50
2024-03-05T19:15:29.827Z,97.50
2024-03-05T19:17:58.730Z,97.40
2024-03-05T19:20:27.308Z,97.40
2024-03-05T19:22:54.786Z,97.40
2024-03-05T19:25:29.376Z,97.40
2024-03-05T19:27:56.812Z,97.40
2024-03-05T19:30:24.128Z,97.50
2024-03-05T19:32:51.169Z,97.30
2024-03-05T19:35:19.017Z,97.30
2024-03-05T19:37:48.827Z,97.30
2024-03-05T19:40:17.647Z,97.30
2024-03-05T19:42:46.497Z,97.40
2024-03-05T19:45:14.898Z,97.30
2024-03-05T19:47:42.500Z,97.30
2024-03-05T19:50:15.101Z,97.30
2024-03-05T19:52:42.431Z,97.30
2024-03-05T19:55:10.240Z,97.30
2024-03-05T19:57:38.588Z,97.30
2024-03-05T20:00:13.335Z,97.30
2024-03-05T20:02:40.740Z,97.30
2024-03-05T20:05:08.192Z,97.30
2024-03-05T20:07:35.392Z,97.20
2024-03-05T20:10:02.996Z,97.30
2024-03-05T20:12:30.288Z,97.20
2024-03-05T20:14:57.682Z,97.20
2024-03-05T20:17:27.669Z,97.10
2024-03-05T20:19:55.259Z,97.10
2024-03-05T20:22:26.792Z,97.20
2024-03-05T20:24:59.867Z,97.20
2024-03-05T20:27:28.467Z,97.10
2024-03-05T20:29:57.079Z,97.10
2024-03-05T20:32:26.278Z,97.20
2024-03-05T20:34:53.420Z,97.10
2024-03-05T20:37:21.883Z,97.10
2024-03-05T20:39:50.934Z,97.00
2024-03-05T20:42:18.260Z,97.00
2024-03-05T20:44:45.362Z,97.10
2024-03-05T20:47:13.065Z,97.10
2024-03-05T20:49:40.261Z,97.00
2024-03-05T20:52:07.359Z,97.10
2024-03-05T20:54:34.495Z,97.00
2024-03-05T20:57:01.632Z,97.10
2024-03-05T20:59:33.611Z,97.00
2024-03-05T21:02:10.843Z,97.00
2024-03-05T21:04:39.326Z,96.90
2024-03-05T21:07:07.111Z,96.90
2024-03-05T21:09:38.245Z,96.90
2024-03-05T21:12:05.944Z,96.90
2024-03-05T21:14:33.180Z,96.90
2024-03-05T21:17:00.297Z,96.90
2024-03-05T21:19:29.685Z,96.80
2024-03-05T21:21:57.812Z,96.80
2024-03-05T21:24:27.533Z,96.90
2024-03-05T21:27:09.933Z,96.80
2024-03-05T21:29:41.977Z,96.90
2024-03-05T21:32:09.612Z,96.80
2024-03-05T21:34:36.796Z,96.70
2024-03-05T21:37:03.928Z,96.80
2024-03-05T21:39:31.392Z,96.70
2024-03-05T21:41:58.494Z,96.70
2024-03-05T21:44:37.148Z,96.80
2024-03-05T21:47:08.918Z,96.70
2024-03-05T21:49:36.167Z,96.70
2024-03-05T21:52:04.708Z,96.60
2024-03-05T21:54:31.931Z,96.70
2024-03-05T21:56:59.002Z,96.70
2024-03-05T21:59:26.671Z,96.60
2024-03-05T22:01:54.282Z,96.70
2024-03-05T22:04:21.695Z,96.60
2024-03-05T22:06:50.035Z,96.60
2024-03-05T22:09:18.299Z,96.60
2024-03-05T22:11:45.915Z,96.60
2024-03-05T22:14:13.472Z,96.60
2024-03-05T22:16:42.153Z,96.70
2024-03-05T22:19:09.623Z,96.50
2024-03-05T22:21:38.253Z,96.50
2024-03-05T22:24:09.782Z,96.60
2024-03-05T22:26:38.699Z,96.50
2024-03-05T22:29:05.925Z,96.60
2024-03-05T22:31:33.124Z,96.50
2024-03-05T22:34:00.330Z,96.50
2024-03-05T22:36:27.313Z,96.50
2024-03-05T22:38:54.298Z,96.60
2024-03-05T22:41:21.672Z,96.50
2024-03-05T22:43:50.068Z,96.50
2024-03-05T22:46:18.007Z,96.50
2024-03-05T22:49:23.415Z,96.50
2024-03-05T22:51:50.840Z,96.50
2024-03-05T22:54:17.930Z,96.60
2024-03-05T22:56:49.343Z,96.50
2024-03-05T22:59:17.805Z,96.50
2024-03-05T23:01:45.520Z,96.50
2024-03-05T23:04:12.872Z,96.50
2024-03-05T23:06:40.215Z,96.50
2024-03-05T23:09:08.114Z,96.40
2024-03-05T23:11:35.565Z,96.50
2024-03-05T23:14:05.926Z,96.40
2024-03-05T23:16:33.657Z,96.50
2024-03-05T23:19:01.284Z,96.50
2024-03-05T23:21:28.535Z,96.40
2024-03-05T23:23:55.685Z,96.50
2024-03-05T23:26:22.885Z,96.40
2024-03-05T23:28:50.345Z,96.50
2024-03-05T23:31:17.749Z,96.50
2024-03-05T23:33:44.905Z,96.50
2024-03-05T23:36:11.973Z,96.50
2024-03-05T23:38:39.285Z,96.40
2024-03-05T23:41:16.584Z,96.50
2024-03-05T23:43:48.243Z,96.50
2024-03-05T23:46:22.277Z,96.50
2024-03-05T23:48:49.540Z,96.40
2024-03-05T23:51:16.778Z,96.40
2024-03-05T23:53:44.150Z,96.40
2024-03-05T23:56:11.664Z,96.50
2024-03-05T23:58:40.230Z,96.50
